createdAt,value
2019-01-31T00:01:59.695Z,94.30
2019-01-31T00:04:44.667Z,94.20
2019-01-31T00:08:02.498Z,94.30
2019-01-31T00:11:01.320Z,94.30
2019-01-31T00:14:15.267Z,94.40
2019-01-31T00:17:24.292Z,94.50
2019-01-31T00:20:14.269Z,94.30
2019-01-31T00:23:20.534Z,94.20
2019-01-31T00:26:33.824Z,94.20
2019-01-31T00:29:34.163Z,94.40
2019-01-31T00:32:42.700Z,94.70
2019-01-31T00:35:58.812Z,94.90
2019-01-31T00:39:06.087Z,95.00
2019-01-31T00:42:28.271Z,95.10
2019-01-31T00:45:35.424Z,95.10
2019-01-31T00:48:38.899Z,95.00
2019-01-31T00:51:16.936Z,95.00
2019-01-31T00:54:18.268Z,95.10
2019-01-31T00:57:13.065Z,95.10
2019-01-31T01:00:04.147Z,95.40
2019-01-31T01:02:58.595Z,95.60
2019-01-31T01:06:09.603Z,95.70
2019-01-31T01:09:10.632Z,95.80
2019-01-31T01:12:04.482Z,95.70
2019-01-31T01:14:46.287Z,95.80
2019-01-31T01:17:29.580Z,96.10
2019-01-31T01:20:45.776Z,96.40
2019-01-31T01:23:34.553Z,96.60
2019-01-31T01:26:37.187Z,96.70
2019-01-31T01:29:44.286Z,96.80
2019-01-31T01:32:41.504Z,96.80
2019-01-31T01:35:58.086Z,96.80
2019-01-31T01:39:18.936Z,96.80
2019-01-31T01:42:30.160Z,96.90
2019-01-31T01:45:19.767Z,97.00
2019-01-31T01:48:07.491Z,97.00
2019-01-31T01:51:13.265Z,96.90
2019-01-31T01:54:22.379Z,96.90
2019-01-31T01:57:38.945Z,97.30
2019-01-31T02:00:24.155Z,97.40
2019-01-31T02:03:23.048Z,97.60
2019-01-31T02:06:11.195Z,97.40
2019-01-31T02:09:14.760Z,97.50
2019-01-31T02:12:32.107Z,97.60
2019-01-31T02:15:39.816Z,97.60
2019-01-31T02:18:30.140Z,97.70
2019-01-31T02:21:31.834Z,97.70
2019-01-31T02:24:15.883Z,97.70
2019-01-31T02:27:12.067Z,97.60
2019-01-31T02:30:13.031Z,97.60
2019-01-31T02:32:59.515Z,97.60
2019-01-31T02:36:01.663Z,98.00
2019-01-31T02:38:42.725Z,98.10
2019-01-31T02:41:23.800Z,98.10
2019-01-31T02:44:27.823Z,98.10
2019-01-31T02:47:34.332Z,98.00
2019-01-31T02:50:27.180Z,98.00
2019-01-31T02:53:22.170Z,98.20
2019-01-31T02:56:18.260Z,98.40
2019-01-31T02:59:29.092Z,98.40
2019-01-31T03:02:11.269Z,98.30
2019-01-31T03:05:06.344Z,98.80
2019-01-31T03:08:12.349Z,98.30
2019-01-31T03:10:55.973Z,98.40
2019-01-31T03:13:55.181Z,98.30
2019-01-31T03:17:03.270Z,98.30
2019-01-31T03:19:53.800Z,98.40
2019-01-31T03:22:41.035Z,98.40
2019-01-31T03:25:57.315Z,98.60
2019-01-31T03:29:11.882Z,98.60
2019-01-31T03:32:16.005Z,98.80
2019-01-31T03:35:05.898Z,98.90
2019-01-31T03:38:14.611Z,99.00
2019-01-31T03:41:20.463Z,99.20
2019-01-31T03:44:05.423Z,99.30
2019-01-31T03:47:15.471Z,99.10
2019-01-31T03:50:11.645Z,99.20
2019-01-31T03:52:59.664Z,99.40
2019-01-31T03:56:11.245Z,99.50
2019-01-31T03:59:04.839Z,99.50
2019-01-31T04:01:56.441Z,99.50
2019-01-31T04:04:32.919Z,99.50
2019-01-31T04:07:01.889Z,99.60
2019-01-31T04:09:36.843Z,99.50
2019-01-31T04:12:05.910Z,99.30
2019-01-31T04:14:34.915Z,99.40
2019-01-31T04:17:04.084Z,99.40
2019-01-31T04:19:33.073Z,99.40
2019-01-31T04:22:02.013Z,99.30
2019-01-31T04:24:30.884Z,99.40
2019-01-31T04:27:18.923Z,99.30
2019-01-31T04:29:47.881Z,99.20
2019-01-31T04:32:16.809Z,99.30
2019-01-31T04:34:45.668Z,99.30
2019-01-31T04:37:14.595Z,99.30
2019-01-31T04:39:43.548Z,99.30
2019-01-31T04:42:12.430Z,99.30
2019-01-31T04:44:41.445Z,99.30
2019-01-31T04:47:13.239Z,99.20
2019-01-31T04:49:42.267Z,98.90
2019-01-31T04:52:11.304Z,98.90
2019-01-31T04:54:40.247Z,99.00
2019-01-31T04:57:09.264Z,98.90
2019-01-31T04:59:38.273Z,99.10
2019-01-31T05:02:07.303Z,99.20
2019-01-31T05:04:36.232Z,99.30
2019-01-31T05:07:05.243Z,99.40
2019-01-31T05:09:34.187Z,99.60
2019-01-31T05:12:03.220Z,99.50
2019-01-31T05:14:32.244Z,99.40
2019-01-31T05:17:01.198Z,99.30
2019-01-31T05:19:30.063Z,99.40
2019-01-31T05:21:59.092Z,99.60
2019-01-31T05:24:30.852Z,99.70
2019-01-31T05:26:59.892Z,99.50
2019-01-31T05:29:28.839Z,99.60
2019-01-31T05:31:57.902Z,99.50
2019-01-31T05:34:26.943Z,99.40
2019-01-31T05:36:55.887Z,99.50
2019-01-31T05:39:24.831Z,99.90
2019-01-31T05:41:53.831Z,99.90
2019-01-31T05:44:41.960Z,99.90
2019-01-31T05:47:10.975Z,99.60
2019-01-31T05:49:40.019Z,99.80
2019-01-31T05:52:09.044Z,99.80
2019-01-31T05:54:38.132Z,99.70
2019-01-31T05:57:12.997Z,99.80
2019-01-31T05:59:42.045Z,99.90
2019-01-31T06:02:11.074Z,99.90
2019-01-31T06:04:40.092Z,99.90
2019-01-31T06:07:11.150Z,99.90
2019-01-31T06:09:39.812Z,99.90
2019-01-31T06:12:08.876Z,99.90
2019-01-31T06:14:37.743Z,99.90
2019-01-31T06:17:08.899Z,99.90
2019-01-31T06:19:57.019Z,99.90
2019-01-31T06:22:25.881Z,99.90
2019-01-31T06:25:14.085Z,99.90
2019-01-31T06:27:43.118Z,99.90
2019-01-31T06:30:13.777Z,99.90
2019-01-31T06:32:42.797Z,99.90
2019-01-31T06:35:12.419Z,99.90
2019-01-31T06:37:41.352Z,99.90
2019-01-31T06:40:29.475Z,99.90
2019-01-31T06:42:58.497Z,99.90
2019-01-31T06:45:27.508Z,99.90
2019-01-31T06:47:56.521Z,99.90
2019-01-31T06:50:25.536Z,99.90
2019-01-31T06:52:54.628Z,99.90
2019-01-31T06:55:23.632Z,99.90
2019-01-31T06:57:52.584Z,99.90
2019-01-31T07:00:23.408Z,99.90
2019-01-31T07:02:52.430Z,99.90
2019-01-31T07:05:21.444Z,99.90
2019-01-31T07:07:50.396Z,99.90
2019-01-31T07:10:25.191Z,99.90
2019-01-31T07:12:54.499Z,99.90
2019-01-31T07:15:23.524Z,99.90
2019-01-31T07:17:52.540Z,99.90
2019-01-31T07:20:21.623Z,99.90
2019-01-31T07:23:09.739Z,99.90
2019-01-31T07:25:38.827Z,99.90
2019-01-31T07:28:08.276Z,99.90
2019-01-31T07:30:37.284Z,99.90
2019-01-31T07:33:06.391Z,99.90
2019-01-31T07:35:35.475Z,99.90
2019-01-31T07:38:04.499Z,99.90
2019-01-31T07:40:33.480Z,99.90
2019-01-31T07:43:02.481Z,99.90
2019-01-31T07:45:50.624Z,99.90
2019-01-31T07:48:19.621Z,99.90
2019-01-31T07:50:48.755Z,99.90
2019-01-31T07:53:17.782Z,99.90
2019-01-31T07:55:46.778Z,99.90
2019-01-31T07:58:34.924Z,99.90
2019-01-31T08:01:03.941Z,99.90
2019-01-31T08:03:32.871Z,99.90
2019-01-31T08:06:01.997Z,99.70
2019-01-31T08:08:31.028Z,99.40
2019-01-31T08:11:00.066Z,99.10
2019-01-31T08:13:29.108Z,98.60
2019-01-31T08:15:58.132Z,98.30
2019-01-31T08:18:27.210Z,98.10
2019-01-31T08:20:56.331Z,97.90
2019-01-31T08:23:25.390Z,97.80
2019-01-31T08:25:54.384Z,97.70
2019-01-31T08:28:23.452Z,97.60
2019-01-31T08:33:28.595Z,97.50
2019-01-31T08:35:59.643Z,97.10
2019-01-31T08:38:28.615Z,96.90
2019-01-31T08:40:57.640Z,96.90
2019-01-31T08:43:26.548Z,97.00
2019-01-31T08:45:55.526Z,97.20
2019-01-31T08:48:24.585Z,97.10
2019-01-31T08:50:53.614Z,97.00
2019-01-31T08:53:22.631Z,96.70
2019-01-31T08:55:51.666Z,96.70
2019-01-31T08:58:20.727Z,96.60
2019-01-31T09:00:49.791Z,96.30
2019-01-31T09:03:18.852Z,96.20
2019-01-31T09:05:47.784Z,96.20
2019-01-31T09:08:16.733Z,95.90
2019-01-31T09:10:45.751Z,95.80
2019-01-31T09:13:14.772Z,95.70
2019-01-31T09:15:43.773Z,95.60
2019-01-31T09:18:12.849Z,95.60
2019-01-31T09:20:45.529Z,95.50
2019-01-31T09:23:58.227Z,95.30
2019-01-31T09:27:02.401Z,95.00
2019-01-31T09:29:47.520Z,94.20
2019-01-31T09:33:03.992Z,94.10
2019-01-31T09:36:01.916Z,93.90
2019-01-31T09:39:04.896Z,93.30
2019-01-31T09:42:10.280Z,93.70
2019-01-31T09:45:05.818Z,93.30
2019-01-31T09:48:02.820Z,92.90
2019-01-31T09:51:04.172Z,92.60
2019-01-31T09:54:12.288Z,92.40
2019-01-31T09:57:17.380Z,92.90
2019-01-31T10:00:01.696Z,92.60
2019-01-31T10:03:11.593Z,92.30
2019-01-31T10:06:17.607Z,92.30
2019-01-31T10:09:28.536Z,91.50
2019-01-31T10:12:40.520Z,91.60
2019-01-31T10:15:39.004Z,91.70
2019-01-31T10:18:49.347Z,91.60
2019-01-31T10:21:44.501Z,91.70
2019-01-31T10:24:54.439Z,91.10
2019-01-31T10:27:44.902Z,90.50
2019-01-31T10:30:49.728Z,89.90
2019-01-31T10:33:40.406Z,84.60
2019-01-31T10:36:24.576Z,79.30
2019-01-31T10:39:42.857Z,77.50
2019-01-31T10:43:05.272Z,72.00
2019-01-31T10:46:11.681Z,61.30
2019-01-31T10:48:57.727Z,49.40
2019-01-31T10:52:07.359Z,39.70
2019-01-31T10:54:53.211Z,37.00
2019-01-31T10:58:10.398Z,31.70
2019-01-31T11:01:12.772Z,27.80
2019-01-31T11:03:49.583Z,26.70
2019-01-31T11:06:40.329Z,25.00
2019-01-31T11:09:40.405Z,23.10
2019-01-31T11:12:37.539Z,22.60
2019-01-31T11:15:43.076Z,21.60
2019-01-31T11:18:19.584Z,21.60
2019-01-31T11:21:00.126Z,21.40
2019-01-31T11:23:40.256Z,21.40
2019-01-31T11:26:57.101Z,20.50
2019-01-31T11:30:16.742Z,20.40
2019-01-31T11:33:20.818Z,19.30
2019-01-31T11:36:18.004Z,19.10
2019-01-31T11:39:30.063Z,17.70
2019-01-31T11:42:19.228Z,18.40
2019-01-31T11:45:22.720Z,17.90
2019-01-31T11:48:30.549Z,16.70
2019-01-31T11:51:40.905Z,17.30
2019-01-31T11:54:48.274Z,17.30
2019-01-31T11:58:09.769Z,17.00
2019-01-31T12:00:39.155Z,17.10
2019-01-31T12:03:08.231Z,16.70
2019-01-31T12:05:37.408Z,16.00
2019-01-31T12:08:07.067Z,16.70
2019-01-31T12:10:36.196Z,16.50
2019-01-31T12:13:05.785Z,16.30
2019-01-31T12:15:36.129Z,16.00
2019-01-31T12:18:07.513Z,16.00
2019-01-31T12:20:36.857Z,15.80
2019-01-31T12:23:06.270Z,15.80
2019-01-31T12:25:35.296Z,16.20
2019-01-31T12:28:04.584Z,15.50
2019-01-31T12:30:33.650Z,15.80
2019-01-31T12:33:02.744Z,15.80
2019-01-31T12:35:31.881Z,15.20
2019-01-31T12:38:00.965Z,14.80
2019-01-31T12:40:30.279Z,14.30
2019-01-31T12:42:59.227Z,14.70
2019-01-31T12:45:28.261Z,14.40
2019-01-31T12:47:57.349Z,14.40
2019-01-31T12:50:28.144Z,14.10
2019-01-31T12:52:57.210Z,14.40
2019-01-31T12:55:26.224Z,14.00
2019-01-31T12:57:55.277Z,13.90
2019-01-31T13:00:26.895Z,13.90
2019-01-31T13:02:56.082Z,14.40
2019-01-31T13:05:25.108Z,14.40
2019-01-31T13:07:55.172Z,14.40
2019-01-31T13:10:24.189Z,14.80
2019-01-31T13:12:54.053Z,14.50
2019-01-31T13:15:23.066Z,14.60
2019-01-31T13:17:54.289Z,14.40
2019-01-31T13:20:25.038Z,14.40
2019-01-31T13:22:56.233Z,14.40
2019-01-31T13:25:27.416Z,14.20
2019-01-31T13:27:56.554Z,14.30
2019-01-31T13:30:25.612Z,14.10
2019-01-31T13:32:56.037Z,14.00
2019-01-31T13:35:25.060Z,14.40
2019-01-31T13:37:54.392Z,14.20
2019-01-31T13:40:26.012Z,14.00
2019-01-31T13:42:56.562Z,13.90
2019-01-31T13:45:30.880Z,14.00
2019-01-31T13:48:02.673Z,14.50
2019-01-31T13:50:31.703Z,15.10
2019-01-31T13:53:01.051Z,15.50
2019-01-31T13:55:30.987Z,16.10
2019-01-31T13:58:02.315Z,16.80
2019-01-31T14:00:31.352Z,18.20
2019-01-31T14:03:00.676Z,19.40
2019-01-31T14:05:30.118Z,20.40
2019-01-31T14:07:59.574Z,21.30
2019-01-31T14:10:28.584Z,22.10
2019-01-31T14:12:57.619Z,22.80
2019-01-31T14:15:33.373Z,23.50
2019-01-31T14:18:00.535Z,24.40
2019-01-31T14:20:31.141Z,24.40
2019-01-31T14:23:00.229Z,24.60
2019-01-31T14:25:29.309Z,25.00
2019-01-31T14:27:58.460Z,25.10
2019-01-31T14:30:34.024Z,25.40
2019-01-31T14:33:03.641Z,25.60
2019-01-31T14:35:32.875Z,26.20
2019-01-31T14:38:01.981Z,26.60
2019-01-31T14:40:31.028Z,27.80
2019-01-31T14:43:02.980Z,28.40
2019-01-31T14:45:31.984Z,28.90
2019-01-31T14:48:01.267Z,29.30
2019-01-31T14:50:31.883Z,29.50
2019-01-31T14:53:00.903Z,29.80
2019-01-31T14:55:30.037Z,30.00
2019-01-31T14:57:59.105Z,30.30
2019-01-31T15:00:29.762Z,30.30
2019-01-31T15:02:58.897Z,30.50
2019-01-31T15:05:28.024Z,30.70
2019-01-31T15:07:57.113Z,31.10
2019-01-31T15:10:27.552Z,31.20
2019-01-31T15:12:56.608Z,31.40
2019-01-31T15:15:25.625Z,31.50
2019-01-31T15:17:54.702Z,31.50
2019-01-31T15:20:35.993Z,31.70
2019-01-31T15:22:57.013Z,33.00
2019-01-31T15:25:26.059Z,33.00
2019-01-31T15:27:55.228Z,33.50
2019-01-31T15:30:27.216Z,34.50
2019-01-31T15:32:56.525Z,34.40
2019-01-31T15:35:25.524Z,35.10
2019-01-31T15:37:54.628Z,35.50
2019-01-31T15:40:33.632Z,36.20
2019-01-31T15:43:03.211Z,36.70
2019-01-31T15:45:32.242Z,37.20
2019-01-31T15:48:01.276Z,37.70
2019-01-31T15:50:30.687Z,37.90
2019-01-31T15:52:59.740Z,38.20
2019-01-31T15:55:29.340Z,38.30
2019-01-31T15:57:58.378Z,39.40
2019-01-31T16:00:43.663Z,39.70
2019-01-31T16:03:17.396Z,40.10
2019-01-31T16:05:46.497Z,40.40
2019-01-31T16:08:16.369Z,40.90
2019-01-31T16:10:45.502Z,41.10
2019-01-31T16:13:41.804Z,41.00
2019-01-31T16:16:30.045Z,41.20
2019-01-31T16:18:59.086Z,41.50
2019-01-31T16:21:28.053Z,41.90
2019-01-31T16:23:57.194Z,42.30
2019-01-31T16:26:28.193Z,42.40
2019-01-31T16:28:57.247Z,42.30
2019-01-31T16:31:26.292Z,42.80
2019-01-31T16:33:55.220Z,42.60
2019-01-31T16:36:24.436Z,42.70
2019-01-31T16:38:53.473Z,43.00
2019-01-31T16:41:22.506Z,43.40
2019-01-31T16:43:51.564Z,43.80
2019-01-31T16:46:20.560Z,44.20
2019-01-31T16:48:49.559Z,44.30
2019-01-31T16:51:18.600Z,44.40
2019-01-31T16:53:47.611Z,44.70
2019-01-31T16:56:16.766Z,44.60
2019-01-31T16:58:45.759Z,44.70
2019-01-31T17:01:16.062Z,44.80
2019-01-31T17:03:45.559Z,45.40
2019-01-31T17:06:14.579Z,44.70
2019-01-31T17:08:43.704Z,44.80
2019-01-31T17:11:12.719Z,45.30
2019-01-31T17:13:41.832Z,45.20
2019-01-31T17:16:10.915Z,45.60
2019-01-31T17:18:39.984Z,45.70
2019-01-31T17:21:09.009Z,45.90
2019-01-31T17:23:38.021Z,45.90
2019-01-31T17:26:07.066Z,46.00
2019-01-31T17:28:36.101Z,46.10
2019-01-31T17:31:05.259Z,46.10
2019-01-31T17:33:34.280Z,46.60
2019-01-31T17:36:03.319Z,46.50
2019-01-31T17:38:33.249Z,46.60
2019-01-31T17:41:02.896Z,46.80
2019-01-31T17:43:31.893Z,47.20
2019-01-31T17:46:01.511Z,47.40
2019-01-31T17:48:30.505Z,47.70
2019-01-31T17:50:59.639Z,48.20
2019-01-31T17:53:28.729Z,48.70
2019-01-31T17:55:57.756Z,48.90
2019-01-31T17:58:26.769Z,49.00
2019-01-31T18:00:57.754Z,49.00
2019-01-31T18:03:27.277Z,49.20
2019-01-31T18:05:56.473Z,49.40
2019-01-31T18:08:26.606Z,49.60
2019-01-31T18:10:55.604Z,49.80
2019-01-31T18:13:24.703Z,50.20
2019-01-31T18:15:53.708Z,50.50
2019-01-31T18:18:22.667Z,51.00
2019-01-31T18:20:51.702Z,51.40
2019-01-31T18:23:20.641Z,51.60
2019-01-31T18:25:49.631Z,51.70
2019-01-31T18:28:18.649Z,51.80
2019-01-31T18:30:47.755Z,51.60
2019-01-31T18:33:16.714Z,51.80
2019-01-31T18:35:45.667Z,51.60
2019-01-31T18:38:14.603Z,51.30
2019-01-31T18:40:43.631Z,51.20
2019-01-31T18:43:12.617Z,51.20
2019-01-31T18:45:52.657Z,51.20
2019-01-31T18:48:13.305Z,51.40
2019-01-31T18:50:43.173Z,51.50
2019-01-31T18:53:12.198Z,51.50
2019-01-31T18:55:41.255Z,51.50
2019-01-31T18:58:10.178Z,51.90
2019-01-31T19:00:41.875Z,52.00
2019-01-31T19:03:31.643Z,52.00
2019-01-31T19:06:00.655Z,52.30
2019-01-31T19:08:29.672Z,52.70
2019-01-31T19:10:58.686Z,52.70
2019-01-31T19:13:27.635Z,53.10
2019-01-31T19:16:04.660Z,53.30
2019-01-31T19:18:27.473Z,53.50
2019-01-31T19:20:56.477Z,53.60
2019-01-31T19:23:25.492Z,53.60
2019-01-31T19:25:54.543Z,53.70
2019-01-31T19:28:23.584Z,53.90
2019-01-31T19:30:52.599Z,54.10
2019-01-31T19:33:21.524Z,54.20
2019-01-31T19:35:50.660Z,54.40
2019-01-31T19:38:19.600Z,54.40
2019-01-31T19:41:07.720Z,54.50
2019-01-31T19:43:36.726Z,54.70
2019-01-31T19:46:15.711Z,54.90
2019-01-31T19:48:42.392Z,55.10
2019-01-31T19:51:11.375Z,55.00
2019-01-31T19:53:40.320Z,55.40
2019-01-31T19:56:09.320Z,55.50
2019-01-31T19:58:57.480Z,55.50
2019-01-31T20:01:26.552Z,55.50
2019-01-31T20:03:55.585Z,55.80
2019-01-31T20:06:24.585Z,55.80
2019-01-31T20:08:53.877Z,55.90
2019-01-31T20:11:22.987Z,56.00
2019-01-31T20:13:52.024Z,56.00
2019-01-31T20:16:28.518Z,56.10
2019-01-31T20:18:51.781Z,56.20
2019-01-31T20:21:20.791Z,56.40
2019-01-31T20:23:49.756Z,56.30
2019-01-31T20:26:18.779Z,56.20
2019-01-31T20:28:47.779Z,56.10
2019-01-31T20:31:16.852Z,56.10
2019-01-31T20:33:45.883Z,56.10
2019-01-31T20:36:14.948Z,56.00
2019-01-31T20:38:43.975Z,55.90
2019-01-31T20:41:12.985Z,55.70
2019-01-31T20:43:42.036Z,55.80
2019-01-31T20:46:10.979Z,55.90
2019-01-31T20:48:39.974Z,55.90
2019-01-31T20:51:08.975Z,56.00
2019-01-31T20:53:38.053Z,56.00
2019-01-31T20:56:07.074Z,56.00
2019-01-31T20:58:36.132Z,55.90
2019-01-31T21:01:06.104Z,55.90
2019-01-31T21:03:54.662Z,55.90
2019-01-31T21:06:23.605Z,55.70
2019-01-31T21:08:52.631Z,55.70
2019-01-31T21:11:21.825Z,55.70
2019-01-31T21:14:02.557Z,55.70
2019-01-31T21:16:31.592Z,55.40
2019-01-31T21:19:00.623Z,55.50
2019-01-31T21:21:29.592Z,55.40
2019-01-31T21:23:58.604Z,55.50
2019-01-31T21:26:27.634Z,55.50
2019-01-31T21:28:56.631Z,55.30
2019-01-31T21:31:25.628Z,55.20
2019-01-31T21:33:54.629Z,55.30
2019-01-31T21:36:23.599Z,55.70
2019-01-31T21:38:52.611Z,55.60
2019-01-31T21:41:21.536Z,55.60
2019-01-31T21:43:50.556Z,55.70
2019-01-31T21:46:19.512Z,55.90
2019-01-31T21:48:48.550Z,56.00
2019-01-31T21:51:17.463Z,56.40
2019-01-31T21:53:46.496Z,55.90
2019-01-31T21:56:15.504Z,56.00
2019-01-31T21:58:44.628Z,56.10
2019-01-31T22:01:13.640Z,56.10
2019-01-31T22:04:01.736Z,56.10
2019-01-31T22:06:30.707Z,56.00
2019-01-31T22:09:08.178Z,56.10
2019-01-31T22:11:37.155Z,56.40
2019-01-31T22:14:06.143Z,56.40
2019-01-31T22:16:35.407Z,56.10
2019-01-31T22:19:04.401Z,56.30
2019-01-31T22:21:33.352Z,56.60
2019-01-31T22:24:02.363Z,57.10
2019-01-31T22:26:31.316Z,57.50
2019-01-31T22:29:00.249Z,57.10
2019-01-31T22:31:29.256Z,57.30
2019-01-31T22:33:58.262Z,57.70
2019-01-31T22:36:27.320Z,58.00
2019-01-31T22:38:56.258Z,58.00
2019-01-31T22:41:25.263Z,58.60
2019-01-31T22:43:55.482Z,58.00
2019-01-31T22:46:24.757Z,57.80
2019-01-31T22:48:53.775Z,58.30
2019-01-31T22:51:22.805Z,58.10
2019-01-31T22:53:51.844Z,58.10
2019-01-31T22:56:20.815Z,58.30
2019-01-31T22:58:49.838Z,58.50
2019-01-31T23:01:30.322Z,58.60
2019-01-31T23:03:59.333Z,58.80
2019-01-31T23:06:28.339Z,58.90
2019-01-31T23:08:57.349Z,58.90
2019-01-31T23:11:32.372Z,59.20
2019-01-31T23:14:01.577Z,59.00
2019-01-31T23:16:30.640Z,59.20
2019-01-31T23:18:59.565Z,59.20
2019-01-31T23:21:28.595Z,59.10
2019-01-31T23:23:57.504Z,59.00
2019-01-31T23:26:26.434Z,59.20
2019-01-31T23:28:55.469Z,59.40
2019-01-31T23:31:24.461Z,59.30
2019-01-31T23:33:53.452Z,59.40
2019-01-31T23:36:22.468Z,59.50
2019-01-31T23:38:51.430Z,59.50
2019-01-31T23:41:20.432Z,59.50
2019-01-31T23:43:49.452Z,59.70
2019-01-31T23:46:18.450Z,59.70
2019-01-31T23:48:47.473Z,59.70
2019-01-31T23:51:16.456Z,59.50
2019-01-31T23:53:45.415Z,59.50
2019-01-31T23:56:17.362Z,59.90
2019-01-31T23:58:46.418Z,59.70
